sensor_id;sensor_type;location;lat;lon;timestamp;P1;durP1;ratioP1;P2;durP2;ratioP2
24137;SDS011;17947;50.672;6.076;2022-12-07T00:01:45;4.57;;;3.38;;
24137;SDS011;17947;50.672;6.076;2022-12-07T00:04:13;4.38;;;3.60;;
24137;SDS011;17947;50.672;6.076;2022-12-07T00:06:40;4.82;;;3.30;;
24137;SDS011;17947;50.672;6.076;2022-12-07T00:09:09;4.25;;;3.35;;
24137;SDS011;17947;50.672;6.076;2022-12-07T00:11:35;3.97;;;3.35;;
24137;SDS011;17947;50.672;6.076;2022-12-07T00:14:02;4.50;;;3.47;;
24137;SDS011;17947;50.672;6.076;2022-12-07T00:16:30;5.72;;;3.58;;
24137;SDS011;17947;50.672;6.076;2022-12-07T00:18:57;4.28;;;3.38;;
24137;SDS011;17947;50.672;6.076;2022-12-07T00:21:24;3.58;;;3.28;;
24137;SDS011;17947;50.672;6.076;2022-12-07T00:23:51;3.28;;;2.97;;
24137;SDS011;17947;50.672;6.076;2022-12-07T00:26:18;3.47;;;3.17;;
24137;SDS011;17947;50.672;6.076;2022-12-07T00:28:45;4.10;;;3.20;;
24137;SDS011;17947;50.672;6.076;2022-12-07T00:31:12;3.28;;;2.90;;
24137;SDS011;17947;50.672;6.076;2022-12-07T00:33:38;4.05;;;3.40;;
24137;SDS011;17947;50.672;6.076;2022-12-07T00:36:06;3.67;;;3.03;;
24137;SDS011;17947;50.672;6.076;2022-12-07T00:38:33;3.28;;;2.97;;
24137;SDS011;17947;50.672;6.076;2022-12-07T00:41:07;3.92;;;3.40;;
24137;SDS011;17947;50.672;6.076;2022-12-07T00:43:33;4.97;;;3.33;;
24137;SDS011;17947;50.672;6.076;2022-12-07T00:45:59;4.50;;;3.38;;
24137;SDS011;17947;50.672;6.076;2022-12-07T00:48:25;3.83;;;3.03;;
24137;SDS011;17947;50.672;6.076;2022-12-07T00:50:51;4.05;;;3.05;;
24137;SDS011;17947;50.672;6.076;2022-12-07T00:53:17;5.75;;;3.67;;
24137;SDS011;17947;50.672;6.076;2022-12-07T00:55:44;4.07;;;3.15;;
24137;SDS011;17947;50.672;6.076;2022-12-07T00:58:10;4.18;;;3.60;;
24137;SDS011;17947;50.672;6.076;2022-12-07T01:00:37;5.40;;;3.72;;
24137;SDS011;17947;50.672;6.076;2022-12-07T01:03:04;3.83;;;3.33;;
24137;SDS011;17947;50.672;6.076;2022-12-07T01:05:30;4.00;;;3.35;;
24137;SDS011;17947;50.672;6.076;2022-12-07T01:07:56;3.80;;;3.38;;
24137;SDS011;17947;50.672;6.076;2022-12-07T01:10:22;4.35;;;3.75;;
24137;SDS011;17947;50.672;6.076;2022-12-07T01:12:48;3.55;;;2.97;;
24137;SDS011;17947;50.672;6.076;2022-12-07T01:15:14;3.45;;;3.15;;
24137;SDS011;17947;50.672;6.076;2022-12-07T01:17:40;5.07;;;3.40;;
24137;SDS011;17947;50.672;6.076;2022-12-07T01:20:06;3.95;;;3.40;;
24137;SDS011;17947;50.672;6.076;2022-12-07T01:22:38;3.63;;;3.33;;
24137;SDS011;17947;50.672;6.076;2022-12-07T01:25:05;4.50;;;3.40;;
24137;SDS011;17947;50.672;6.076;2022-12-07T01:27:32;4.57;;;3.35;;
24137;SDS011;17947;50.672;6.076;2022-12-07T01:29:58;4.78;;;3.58;;
24137;SDS011;17947;50.672;6.076;2022-12-07T01:32:24;4.07;;;3.35;;
24137;SDS011;17947;50.672;6.076;2022-12-07T01:34:50;3.55;;;3.20;;
24137;SDS011;17947;50.672;6.076;2022-12-07T01:37:16;3.83;;;3.08;;
24137;SDS011;17947;50.672;6.076;2022-12-07T01:39:42;4.03;;;3.13;;
24137;SDS011;17947;50.672;6.076;2022-12-07T01:42:09;3.50;;;3.20;;
24137;SDS011;17947;50.672;6.076;2022-12-07T01:47:20;4.63;;;3.28;;
24137;SDS011;17947;50.672;6.076;2022-12-07T01:49:46;3.92;;;3.03;;
24137;SDS011;17947;50.672;6.076;2022-12-07T01:52:24;3.95;;;3.38;;
24137;SDS011;17947;50.672;6.076;2022-12-07T01:54:52;4.03;;;3.42;;
24137;SDS011;17947;50.672;6.076;2022-12-07T01:57:19;3.05;;;2.70;;
24137;SDS011;17947;50.672;6.076;2022-12-07T01:59:47;3.53;;;2.90;;
24137;SDS011;17947;50.672;6.076;2022-12-07T02:05:13;4.40;;;3.40;;
24137;SDS011;17947;50.672;6.076;2022-12-07T02:07:39;3.38;;;2.90;;
24137;SDS011;17947;50.672;6.076;2022-12-07T02:10:13;3.58;;;3.08;;
24137;SDS011;17947;50.672;6.076;2022-12-07T02:12:39;4.28;;;3.35;;
24137;SDS011;17947;50.672;6.076;2022-12-07T02:15:05;4.20;;;3.30;;
24137;SDS011;17947;50.672;6.076;2022-12-07T02:17:32;3.97;;;2.88;;
24137;SDS011;17947;50.672;6.076;2022-12-07T02:25:33;3.67;;;3.38;;
24137;SDS011;17947;50.672;6.076;2022-12-07T02:30:54;3.97;;;3.50;;
24137;SDS011;17947;50.672;6.076;2022-12-07T02:33:28;4.40;;;3.70;;
24137;SDS011;17947;50.672;6.076;2022-12-07T02:36:06;4.53;;;3.50;;
24137;SDS011;17947;50.672;6.076;2022-12-07T02:41:01;4.28;;;3.63;;
24137;SDS011;17947;50.672;6.076;2022-12-07T02:43:33;4.75;;;3.80;;
24137;SDS011;17947;50.672;6.076;2022-12-07T02:46:04;4.05;;;3.50;;
24137;SDS011;17947;50.672;6.076;2022-12-07T02:48:31;4.93;;;3.75;;
24137;SDS011;17947;50.672;6.076;2022-12-07T02:50:59;3.92;;;3.50;;
24137;SDS011;17947;50.672;6.076;2022-12-07T02:53:29;5.03;;;3.90;;
24137;SDS011;17947;50.672;6.076;2022-12-07T02:55:55;6.15;;;3.80;;
24137;SDS011;17947;50.672;6.076;2022-12-07T03:01:50;4.53;;;3.72;;
24137;SDS011;17947;50.672;6.076;2022-12-07T03:03:44;5.82;;;3.85;;
24137;SDS011;17947;50.672;6.076;2022-12-07T03:06:20;4.30;;;3.83;;
24137;SDS011;17947;50.672;6.076;2022-12-07T03:08:50;5.40;;;4.05;;
24137;SDS011;17947;50.672;6.076;2022-12-07T03:11:23;5.15;;;3.92;;
24137;SDS011;17947;50.672;6.076;2022-12-07T03:13:56;4.80;;;3.72;;
24137;SDS011;17947;50.672;6.076;2022-12-07T03:21:50;4.20;;;3.58;;
24137;SDS011;17947;50.672;6.076;2022-12-07T03:24:19;4.30;;;3.90;;
24137;SDS011;17947;50.672;6.076;2022-12-07T03:26:51;4.72;;;3.60;;
24137;SDS011;17947;50.672;6.076;2022-12-07T03:29:28;4.72;;;3.90;;
24137;SDS011;17947;50.672;6.076;2022-12-07T03:32:00;4.90;;;4.18;;
24137;SDS011;17947;50.672;6.076;2022-12-07T03:34:30;4.35;;;3.63;;
24137;SDS011;17947;50.672;6.076;2022-12-07T03:36:59;4.55;;;4.00;;
24137;SDS011;17947;50.672;6.076;2022-12-07T03:41:53;3.85;;;3.40;;
24137;SDS011;17947;50.672;6.076;2022-12-07T03:44:20;4.63;;;3.75;;
24137;SDS011;17947;50.672;6.076;2022-12-07T03:46:50;4.75;;;3.85;;
24137;SDS011;17947;50.672;6.076;2022-12-07T03:57:03;4.72;;;3.85;;
24137;SDS011;17947;50.672;6.076;2022-12-07T03:59:30;4.82;;;3.85;;
24137;SDS011;17947;50.672;6.076;2022-12-07T04:01:57;4.47;;;3.65;;
24137;SDS011;17947;50.672;6.076;2022-12-07T04:04:23;4.80;;;4.03;;
24137;SDS011;17947;50.672;6.076;2022-12-07T04:06:49;3.88;;;3.53;;
24137;SDS011;17947;50.672;6.076;2022-12-07T04:09:16;4.40;;;3.80;;
24137;SDS011;17947;50.672;6.076;2022-12-07T04:11:42;4.13;;;3.72;;
24137;SDS011;17947;50.672;6.076;2022-12-07T04:14:08;4.60;;;4.18;;
24137;SDS011;17947;50.672;6.076;2022-12-07T04:16:47;4.90;;;3.83;;
24137;SDS011;17947;50.672;6.076;2022-12-07T04:19:13;4.60;;;3.80;;
24137;SDS011;17947;50.672;6.076;2022-12-07T04:21:40;4.35;;;3.95;;
24137;SDS011;17947;50.672;6.076;2022-12-07T04:24:06;4.43;;;3.70;;
24137;SDS011;17947;50.672;6.076;2022-12-07T04:26:32;5.00;;;4.03;;
24137;SDS011;17947;50.672;6.076;2022-12-07T04:28:58;4.63;;;4.13;;
24137;SDS011;17947;50.672;6.076;2022-12-07T04:31:24;4.18;;;3.78;;
24137;SDS011;17947;50.672;6.076;2022-12-07T04:33:50;4.47;;;3.85;;
24137;SDS011;17947;50.672;6.076;2022-12-07T04:36:16;4.90;;;3.55;;
24137;SDS011;17947;50.672;6.076;2022-12-07T04:38:44;4.53;;;3.88;;
24137;SDS011;17947;50.672;6.076;2022-12-07T04:41:10;5.57;;;4.20;;
24137;SDS011;17947;50.672;6.076;2022-12-07T04:43:37;5.20;;;4.13;;
24137;SDS011;17947;50.672;6.076;2022-12-07T04:46:03;4.60;;;3.70;;
24137;SDS011;17947;50.672;6.076;2022-12-07T04:48:29;6.28;;;4.45;;
24137;SDS011;17947;50.672;6.076;2022-12-07T04:50:55;4.90;;;4.10;;
24137;SDS011;17947;50.672;6.076;2022-12-07T04:53:21;5.30;;;4.10;;
24137;SDS011;17947;50.672;6.076;2022-12-07T04:55:47;4.93;;;4.25;;
24137;SDS011;17947;50.672;6.076;2022-12-07T04:58:13;5.70;;;4.38;;
24137;SDS011;17947;50.672;6.076;2022-12-07T05:00:39;4.90;;;3.97;;
24137;SDS011;17947;50.672;6.076;2022-12-07T05:03:05;5.15;;;4.30;;
24137;SDS011;17947;50.672;6.076;2022-12-07T05:05:32;4.93;;;4.05;;
24137;SDS011;17947;50.672;6.076;2022-12-07T05:07:58;4.65;;;3.67;;
24137;SDS011;17947;50.672;6.076;2022-12-07T05:10:24;4.32;;;3.92;;
24137;SDS011;17947;50.672;6.076;2022-12-07T05:12:50;4.93;;;3.88;;
24137;SDS011;17947;50.672;6.076;2022-12-07T05:15:16;4.53;;;4.05;;
24137;SDS011;17947;50.672;6.076;2022-12-07T05:17:43;5.68;;;4.07;;
24137;SDS011;17947;50.672;6.076;2022-12-07T05:20:09;4.70;;;4.20;;
24137;SDS011;17947;50.672;6.076;2022-12-07T05:22:35;4.63;;;4.15;;
24137;SDS011;17947;50.672;6.076;2022-12-07T05:25:01;5.15;;;4.15;;
24137;SDS011;17947;50.672;6.076;2022-12-07T05:27:27;4.53;;;3.90;;
24137;SDS011;17947;50.672;6.076;2022-12-07T05:29:53;5.82;;;4.30;;
24137;SDS011;17947;50.672;6.076;2022-12-07T05:32:19;5.90;;;4.70;;
24137;SDS011;17947;50.672;6.076;2022-12-07T05:34:45;5.95;;;4.60;;
24137;SDS011;17947;50.672;6.076;2022-12-07T05:37:11;4.30;;;3.90;;
24137;SDS011;17947;50.672;6.076;2022-12-07T05:39:37;4.72;;;4.13;;
24137;SDS011;17947;50.672;6.076;2022-12-07T05:42:05;5.80;;;4.68;;
24137;SDS011;17947;50.672;6.076;2022-12-07T05:44:38;5.57;;;4.55;;
24137;SDS011;17947;50.672;6.076;2022-12-07T05:47:04;5.05;;;4.10;;
24137;SDS011;17947;50.672;6.076;2022-12-07T05:49:30;5.03;;;4.32;;
24137;SDS011;17947;50.672;6.076;2022-12-07T05:51:56;5.85;;;4.05;;
24137;SDS011;17947;50.672;6.076;2022-12-07T05:54:23;4.38;;;3.78;;
24137;SDS011;17947;50.672;6.076;2022-12-07T05:56:49;4.57;;;3.92;;
24137;SDS011;17947;50.672;6.076;2022-12-07T05:59:15;4.30;;;3.70;;
24137;SDS011;17947;50.672;6.076;2022-12-07T06:01:47;4.30;;;3.90;;
24137;SDS011;17947;50.672;6.076;2022-12-07T06:04:13;4.45;;;3.75;;
24137;SDS011;17947;50.672;6.076;2022-12-07T06:06:39;4.60;;;3.92;;
24137;SDS011;17947;50.672;6.076;2022-12-07T06:09:05;5.57;;;3.80;;
24137;SDS011;17947;50.672;6.076;2022-12-07T06:11:31;4.95;;;3.60;;
24137;SDS011;17947;50.672;6.076;2022-12-07T06:14:16;4.00;;;3.35;;
24137;SDS011;17947;50.672;6.076;2022-12-07T06:16:42;3.47;;;3.17;;
24137;SDS011;17947;50.672;6.076;2022-12-07T06:19:08;3.78;;;3.20;;
24137;SDS011;17947;50.672;6.076;2022-12-07T06:21:34;3.97;;;3.30;;
24137;SDS011;17947;50.672;6.076;2022-12-07T06:24:00;4.43;;;3.40;;
24137;SDS011;17947;50.672;6.076;2022-12-07T06:26:27;3.90;;;3.33;;
24137;SDS011;17947;50.672;6.076;2022-12-07T06:28:53;4.10;;;2.97;;
24137;SDS011;17947;50.672;6.076;2022-12-07T06:31:19;3.67;;;3.13;;
24137;SDS011;17947;50.672;6.076;2022-12-07T06:33:45;3.85;;;3.10;;
24137;SDS011;17947;50.672;6.076;2022-12-07T06:36:11;3.50;;;2.95;;
24137;SDS011;17947;50.672;6.076;2022-12-07T06:38:37;3.10;;;2.80;;
24137;SDS011;17947;50.672;6.076;2022-12-07T06:41:03;2.53;;;2.33;;
24137;SDS011;17947;50.672;6.076;2022-12-07T06:43:29;2.80;;;2.50;;
24137;SDS011;17947;50.672;6.076;2022-12-07T06:45:56;2.88;;;2.58;;
24137;SDS011;17947;50.672;6.076;2022-12-07T06:48:21;3.55;;;2.90;;
24137;SDS011;17947;50.672;6.076;2022-12-07T06:50:48;3.00;;;2.70;;
24137;SDS011;17947;50.672;6.076;2022-12-07T06:53:14;2.75;;;2.50;;
24137;SDS011;17947;50.672;6.076;2022-12-07T06:55:40;3.63;;;2.78;;
24137;SDS011;17947;50.672;6.076;2022-12-07T06:58:06;3.13;;;2.83;;
24137;SDS011;17947;50.672;6.076;2022-12-07T07:00:32;3.00;;;2.60;;
24137;SDS011;17947;50.672;6.076;2022-12-07T07:02:59;3.13;;;2.83;;
24137;SDS011;17947;50.672;6.076;2022-12-07T07:05:25;3.00;;;2.65;;
24137;SDS011;17947;50.672;6.076;2022-12-07T07:07:51;4.28;;;3.13;;
24137;SDS011;17947;50.672;6.076;2022-12-07T07:10:18;3.92;;;3.00;;
24137;SDS011;17947;50.672;6.076;2022-12-07T07:12:44;3.10;;;2.80;;
24137;SDS011;17947;50.672;6.076;2022-12-07T07:15:10;3.22;;;2.83;;
24137;SDS011;17947;50.672;6.076;2022-12-07T07:17:37;3.45;;;3.03;;
24137;SDS011;17947;50.672;6.076;2022-12-07T07:20:03;4.57;;;3.22;;
24137;SDS011;17947;50.672;6.076;2022-12-07T07:22:29;3.78;;;3.03;;
24137;SDS011;17947;50.672;6.076;2022-12-07T07:24:55;4.05;;;3.20;;
24137;SDS011;17947;50.672;6.076;2022-12-07T07:27:21;4.50;;;3.22;;
24137;SDS011;17947;50.672;6.076;2022-12-07T07:29:47;3.67;;;3.25;;
24137;SDS011;17947;50.672;6.076;2022-12-07T07:32:13;4.00;;;3.45;;
24137;SDS011;17947;50.672;6.076;2022-12-07T07:34:40;3.75;;;3.20;;
24137;SDS011;17947;50.672;6.076;2022-12-07T07:37:05;4.32;;;3.45;;
24137;SDS011;17947;50.672;6.076;2022-12-07T07:39:31;3.88;;;3.20;;
24137;SDS011;17947;50.672;6.076;2022-12-07T07:41:57;4.18;;;3.53;;
24137;SDS011;17947;50.672;6.076;2022-12-07T07:44:23;4.28;;;3.40;;
24137;SDS011;17947;50.672;6.076;2022-12-07T07:46:49;5.15;;;3.45;;
24137;SDS011;17947;50.672;6.076;2022-12-07T07:49:15;5.05;;;3.70;;
24137;SDS011;17947;50.672;6.076;2022-12-07T07:51:41;4.25;;;3.33;;
24137;SDS011;17947;50.672;6.076;2022-12-07T07:54:07;4.00;;;2.97;;
24137;SDS011;17947;50.672;6.076;2022-12-07T07:56:33;5.10;;;3.58;;
24137;SDS011;17947;50.672;6.076;2022-12-07T07:58:59;4.65;;;3.25;;
24137;SDS011;17947;50.672;6.076;2022-12-07T08:01:25;3.75;;;3.35;;
24137;SDS011;17947;50.672;6.076;2022-12-07T08:03:51;4.25;;;3.00;;
24137;SDS011;17947;50.672;6.076;2022-12-07T08:06:17;4.43;;;3.50;;
24137;SDS011;17947;50.672;6.076;2022-12-07T08:08:43;5.13;;;3.58;;
24137;SDS011;17947;50.672;6.076;2022-12-07T08:11:09;3.92;;;3.50;;
24137;SDS011;17947;50.672;6.076;2022-12-07T08:13:36;3.47;;;2.80;;
24137;SDS011;17947;50.672;6.076;2022-12-07T08:16:06;4.05;;;3.22;;
24137;SDS011;17947;50.672;6.076;2022-12-07T08:18:37;4.40;;;3.30;;
24137;SDS011;17947;50.672;6.076;2022-12-07T08:21:03;4.93;;;3.42;;
24137;SDS011;17947;50.672;6.076;2022-12-07T08:23:31;4.05;;;3.15;;
24137;SDS011;17947;50.672;6.076;2022-12-07T08:26:01;4.40;;;3.22;;
24137;SDS011;17947;50.672;6.076;2022-12-07T08:28:28;4.65;;;3.45;;
24137;SDS011;17947;50.672;6.076;2022-12-07T08:31:04;3.95;;;3.33;;
24137;SDS011;17947;50.672;6.076;2022-12-07T08:33:30;3.63;;;2.78;;
24137;SDS011;17947;50.672;6.076;2022-12-07T08:36:00;3.42;;;3.03;;
24137;SDS011;17947;50.672;6.076;2022-12-07T08:38:26;3.85;;;3.00;;
24137;SDS011;17947;50.672;6.076;2022-12-07T08:40:56;3.92;;;3.03;;
24137;SDS011;17947;50.672;6.076;2022-12-07T08:43:23;3.05;;;2.75;;
24137;SDS011;17947;50.672;6.076;2022-12-07T08:45:51;4.32;;;2.80;;
24137;SDS011;17947;50.672;6.076;2022-12-07T08:48:21;3.22;;;2.60;;
24137;SDS011;17947;50.672;6.076;2022-12-07T08:50:49;3.78;;;2.42;;
24137;SDS011;17947;50.672;6.076;2022-12-07T08:53:15;3.22;;;2.45;;
24137;SDS011;17947;50.672;6.076;2022-12-07T08:55:41;3.75;;;2.65;;
24137;SDS011;17947;50.672;6.076;2022-12-07T08:58:07;2.88;;;2.38;;
24137;SDS011;17947;50.672;6.076;2022-12-07T09:00:33;3.50;;;2.53;;
24137;SDS011;17947;50.672;6.076;2022-12-07T09:02:59;2.45;;;2.25;;
24137;SDS011;17947;50.672;6.076;2022-12-07T09:05:25;3.00;;;2.45;;
24137;SDS011;17947;50.672;6.076;2022-12-07T09:07:52;3.50;;;2.47;;
24137;SDS011;17947;50.672;6.076;2022-12-07T09:10:20;2.58;;;2.25;;
24137;SDS011;17947;50.672;6.076;2022-12-07T09:12:46;2.95;;;2.53;;
24137;SDS011;17947;50.672;6.076;2022-12-07T09:15:12;3.67;;;2.70;;
24137;SDS011;17947;50.672;6.076;2022-12-07T09:17:38;3.25;;;2.28;;
24137;SDS011;17947;50.672;6.076;2022-12-07T09:20:04;3.08;;;2.50;;
24137;SDS011;17947;50.672;6.076;2022-12-07T09:22:31;3.03;;;2.67;;
24137;SDS011;17947;50.672;6.076;2022-12-07T09:24:57;3.15;;;2.88;;
24137;SDS011;17947;50.672;6.076;2022-12-07T09:27:23;4.32;;;2.78;;
24137;SDS011;17947;50.672;6.076;2022-12-07T09:29:49;4.10;;;2.80;;
24137;SDS011;17947;50.672;6.076;2022-12-07T09:32:16;3.83;;;2.55;;
24137;SDS011;17947;50.672;6.076;2022-12-07T09:34:42;2.85;;;2.58;;
24137;SDS011;17947;50.672;6.076;2022-12-07T09:37:08;3.80;;;3.05;;
24137;SDS011;17947;50.672;6.076;2022-12-07T09:39:34;3.42;;;2.70;;
24137;SDS011;17947;50.672;6.076;2022-12-07T09:42:02;4.03;;;2.97;;
24137;SDS011;17947;50.672;6.076;2022-12-07T09:44:28;3.63;;;3.13;;
24137;SDS011;17947;50.672;6.076;2022-12-07T09:46:55;3.22;;;2.92;;
24137;SDS011;17947;50.672;6.076;2022-12-07T09:49:22;4.40;;;2.70;;
24137;SDS011;17947;50.672;6.076;2022-12-07T09:51:59;2.92;;;2.40;;
24137;SDS011;17947;50.672;6.076;2022-12-07T09:54:26;3.90;;;2.95;;
24137;SDS011;17947;50.672;6.076;2022-12-07T09:56:52;4.35;;;2.80;;
24137;SDS011;17947;50.672;6.076;2022-12-07T09:59:18;3.30;;;2.80;;
24137;SDS011;17947;50.672;6.076;2022-12-07T10:01:46;3.50;;;3.00;;
24137;SDS011;17947;50.672;6.076;2022-12-07T10:04:17;3.47;;;2.80;;
24137;SDS011;17947;50.672;6.076;2022-12-07T10:06:44;3.15;;;2.85;;
24137;SDS011;17947;50.672;6.076;2022-12-07T10:09:11;4.00;;;2.95;;
24137;SDS011;17947;50.672;6.076;2022-12-07T10:14:22;2.83;;;2.47;;
24137;SDS011;17947;50.672;6.076;2022-12-07T10:16:48;4.05;;;2.90;;
24137;SDS011;17947;50.672;6.076;2022-12-07T10:19:22;3.05;;;2.70;;
24137;SDS011;17947;50.672;6.076;2022-12-07T10:24:47;3.97;;;2.80;;
24137;SDS011;17947;50.672;6.076;2022-12-07T10:27:26;3.40;;;2.70;;
24137;SDS011;17947;50.672;6.076;2022-12-07T10:29:52;4.55;;;2.90;;
24137;SDS011;17947;50.672;6.076;2022-12-07T10:34:45;2.85;;;2.55;;
24137;SDS011;17947;50.672;6.076;2022-12-07T10:39:47;3.40;;;2.65;;
24137;SDS011;17947;50.672;6.076;2022-12-07T10:44:43;4.03;;;2.55;;
24137;SDS011;17947;50.672;6.076;2022-12-07T10:54:56;4.43;;;2.60;;
24137;SDS011;17947;50.672;6.076;2022-12-07T10:57:32;3.10;;;2.70;;
24137;SDS011;17947;50.672;6.076;2022-12-07T11:00:22;3.25;;;2.50;;
24137;SDS011;17947;50.672;6.076;2022-12-07T11:05:49;3.33;;;2.42;;
24137;SDS011;17947;50.672;6.076;2022-12-07T11:08:21;3.13;;;2.50;;
24137;SDS011;17947;50.672;6.076;2022-12-07T11:11:04;2.63;;;2.40;;
24137;SDS011;17947;50.672;6.076;2022-12-07T11:16:07;3.08;;;2.70;;
24137;SDS011;17947;50.672;6.076;2022-12-07T11:21:19;3.70;;;2.88;;
24137;SDS011;17947;50.672;6.076;2022-12-07T11:34:21;4.95;;;2.97;;
24137;SDS011;17947;50.672;6.076;2022-12-07T11:36:51;3.25;;;2.70;;
24137;SDS011;17947;50.672;6.076;2022-12-07T11:39:37;3.53;;;2.42;;
24137;SDS011;17947;50.672;6.076;2022-12-07T11:42:15;3.17;;;2.80;;
24137;SDS011;17947;50.672;6.076;2022-12-07T11:47:09;3.13;;;2.60;;
24137;SDS011;17947;50.672;6.076;2022-12-07T11:50:13;3.30;;;2.50;;
24137;SDS011;17947;50.672;6.076;2022-12-07T11:55:19;3.40;;;2.70;;
24137;SDS011;17947;50.672;6.076;2022-12-07T11:57:48;3.92;;;2.67;;
24137;SDS011;17947;50.672;6.076;2022-12-07T12:00:17;3.00;;;2.53;;
24137;SDS011;17947;50.672;6.076;2022-12-07T12:02:46;3.13;;;2.78;;
24137;SDS011;17947;50.672;6.076;2022-12-07T12:05:18;3.50;;;2.55;;
24137;SDS011;17947;50.672;6.076;2022-12-07T12:07:46;4.28;;;2.35;;
24137;SDS011;17947;50.672;6.076;2022-12-07T12:10:15;3.08;;;2.75;;
24137;SDS011;17947;50.672;6.076;2022-12-07T12:22:46;3.40;;;2.60;;
24137;SDS011;17947;50.672;6.076;2022-12-07T12:25:24;3.97;;;2.78;;
24137;SDS011;17947;50.672;6.076;2022-12-07T12:27:51;3.80;;;2.70;;
24137;SDS011;17947;50.672;6.076;2022-12-07T12:30:40;3.38;;;2.30;;
24137;SDS011;17947;50.672;6.076;2022-12-07T12:33:06;3.53;;;2.70;;
24137;SDS011;17947;50.672;6.076;2022-12-07T12:35:38;3.08;;;2.55;;
24137;SDS011;17947;50.672;6.076;2022-12-07T12:38:23;3.95;;;2.90;;
24137;SDS011;17947;50.672;6.076;2022-12-07T12:40:50;4.13;;;2.80;;
24137;SDS011;17947;50.672;6.076;2022-12-07T12:48:46;3.08;;;2.50;;
24137;SDS011;17947;50.672;6.076;2022-12-07T12:56:43;2.63;;;2.35;;
24137;SDS011;17947;50.672;6.076;2022-12-07T12:59:29;2.60;;;2.20;;
24137;SDS011;17947;50.672;6.076;2022-12-07T13:10:04;2.50;;;1.98;;
24137;SDS011;17947;50.672;6.076;2022-12-07T13:12:30;2.53;;;2.13;;
24137;SDS011;17947;50.672;6.076;2022-12-07T13:14:57;2.72;;;2.30;;
24137;SDS011;17947;50.672;6.076;2022-12-07T13:20:00;4.80;;;2.15;;
24137;SDS011;17947;50.672;6.076;2022-12-07T13:25:38;2.45;;;1.90;;
24137;SDS011;17947;50.672;6.076;2022-12-07T13:27:48;2.70;;;2.20;;
24137;SDS011;17947;50.672;6.076;2022-12-07T13:30:19;2.70;;;2.17;;
24137;SDS011;17947;50.672;6.076;2022-12-07T13:32:52;3.67;;;2.20;;
24137;SDS011;17947;50.672;6.076;2022-12-07T13:35:28;3.28;;;2.10;;
24137;SDS011;17947;50.672;6.076;2022-12-07T13:37:54;3.28;;;1.85;;
24137;SDS011;17947;50.672;6.076;2022-12-07T13:40:21;5.25;;;2.10;;
24137;SDS011;17947;50.672;6.076;2022-12-07T13:42:48;2.67;;;1.85;;
24137;SDS011;17947;50.672;6.076;2022-12-07T13:45:24;2.13;;;1.80;;
24137;SDS011;17947;50.672;6.076;2022-12-07T13:48:20;2.85;;;1.92;;
24137;SDS011;17947;50.672;6.076;2022-12-07T13:50:54;2.97;;;2.00;;
24137;SDS011;17947;50.672;6.076;2022-12-07T13:53:20;2.65;;;1.80;;
24137;SDS011;17947;50.672;6.076;2022-12-07T13:55:46;2.33;;;1.92;;
24137;SDS011;17947;50.672;6.076;2022-12-07T13:58:14;2.25;;;1.98;;
24137;SDS011;17947;50.672;6.076;2022-12-07T14:00:41;2.65;;;1.95;;
24137;SDS011;17947;50.672;6.076;2022-12-07T14:05:37;2.35;;;1.90;;
24137;SDS011;17947;50.672;6.076;2022-12-07T14:10:40;3.78;;;1.90;;
24137;SDS011;17947;50.672;6.076;2022-12-07T14:16:17;1.98;;;1.67;;
24137;SDS011;17947;50.672;6.076;2022-12-07T14:18:45;2.65;;;1.70;;
24137;SDS011;17947;50.672;6.076;2022-12-07T14:23:38;2.72;;;2.08;;
24137;SDS011;17947;50.672;6.076;2022-12-07T14:26:06;2.33;;;1.92;;
24137;SDS011;17947;50.672;6.076;2022-12-07T14:28:34;4.18;;;2.22;;
24137;SDS011;17947;50.672;6.076;2022-12-07T14:31:00;3.08;;;2.28;;
24137;SDS011;17947;50.672;6.076;2022-12-07T14:33:27;3.28;;;2.30;;
24137;SDS011;17947;50.672;6.076;2022-12-07T14:35:53;2.55;;;2.13;;
24137;SDS011;17947;50.672;6.076;2022-12-07T14:38:21;3.70;;;2.10;;
24137;SDS011;17947;50.672;6.076;2022-12-07T14:40:47;3.55;;;1.85;;
24137;SDS011;17947;50.672;6.076;2022-12-07T14:43:15;2.40;;;2.00;;
24137;SDS011;17947;50.672;6.076;2022-12-07T14:45:41;3.08;;;2.13;;
24137;SDS011;17947;50.672;6.076;2022-12-07T14:48:07;2.67;;;1.65;;
24137;SDS011;17947;50.672;6.076;2022-12-07T14:50:37;2.60;;;2.10;;
24137;SDS011;17947;50.672;6.076;2022-12-07T14:53:12;3.80;;;2.28;;
24137;SDS011;17947;50.672;6.076;2022-12-07T14:55:38;3.17;;;1.90;;
24137;SDS011;17947;50.672;6.076;2022-12-07T14:58:05;2.45;;;1.83;;
24137;SDS011;17947;50.672;6.076;2022-12-07T15:00:31;2.10;;;1.90;;
24137;SDS011;17947;50.672;6.076;2022-12-07T15:02:58;2.85;;;1.75;;
24137;SDS011;17947;50.672;6.076;2022-12-07T15:05:24;2.70;;;2.00;;
24137;SDS011;17947;50.672;6.076;2022-12-07T15:07:50;1.88;;;1.70;;
24137;SDS011;17947;50.672;6.076;2022-12-07T15:10:25;2.05;;;1.60;;
24137;SDS011;17947;50.672;6.076;2022-12-07T15:12:57;3.63;;;2.10;;
24137;SDS011;17947;50.672;6.076;2022-12-07T15:15:42;2.40;;;2.00;;
24137;SDS011;17947;50.672;6.076;2022-12-07T15:18:08;2.33;;;1.70;;
24137;SDS011;17947;50.672;6.076;2022-12-07T15:20:34;2.85;;;1.70;;
24137;SDS011;17947;50.672;6.076;2022-12-07T15:23:07;3.00;;;1.90;;
24137;SDS011;17947;50.672;6.076;2022-12-07T15:25:36;2.63;;;1.67;;
24137;SDS011;17947;50.672;6.076;2022-12-07T15:28:02;3.63;;;1.60;;
24137;SDS011;17947;50.672;6.076;2022-12-07T15:30:28;3.05;;;1.70;;
24137;SDS011;17947;50.672;6.076;2022-12-07T15:32:54;2.67;;;1.65;;
24137;SDS011;17947;50.672;6.076;2022-12-07T15:35:20;2.90;;;1.60;;
24137;SDS011;17947;50.672;6.076;2022-12-07T15:37:46;2.75;;;1.65;;
24137;SDS011;17947;50.672;6.076;2022-12-07T15:40:15;1.77;;;1.50;;
24137;SDS011;17947;50.672;6.076;2022-12-07T15:42:41;3.60;;;1.85;;
24137;SDS011;17947;50.672;6.076;2022-12-07T15:45:07;3.38;;;1.65;;
24137;SDS011;17947;50.672;6.076;2022-12-07T15:47:38;2.22;;;1.60;;
24137;SDS011;17947;50.672;6.076;2022-12-07T15:50:05;1.90;;;1.42;;
24137;SDS011;17947;50.672;6.076;2022-12-07T15:52:32;3.50;;;1.70;;
24137;SDS011;17947;50.672;6.076;2022-12-07T15:54:58;2.13;;;1.60;;
24137;SDS011;17947;50.672;6.076;2022-12-07T15:57:25;2.22;;;1.60;;
24137;SDS011;17947;50.672;6.076;2022-12-07T15:59:51;1.90;;;1.52;;
24137;SDS011;17947;50.672;6.076;2022-12-07T16:02:18;2.75;;;1.50;;
24137;SDS011;17947;50.672;6.076;2022-12-07T16:04:44;1.33;;;1.23;;
24137;SDS011;17947;50.672;6.076;2022-12-07T16:07:11;1.92;;;1.30;;
24137;SDS011;17947;50.672;6.076;2022-12-07T16:09:39;2.80;;;1.50;;
24137;SDS011;17947;50.672;6.076;2022-12-07T16:12:05;1.88;;;1.38;;
24137;SDS011;17947;50.672;6.076;2022-12-07T16:14:32;1.80;;;1.50;;
24137;SDS011;17947;50.672;6.076;2022-12-07T16:16:58;2.05;;;1.70;;
24137;SDS011;17947;50.672;6.076;2022-12-07T16:19:24;1.77;;;1.60;;
24137;SDS011;17947;50.672;6.076;2022-12-07T16:21:50;1.75;;;1.50;;
24137;SDS011;17947;50.672;6.076;2022-12-07T16:24:17;1.65;;;1.40;;
24137;SDS011;17947;50.672;6.076;2022-12-07T16:26:43;2.78;;;1.60;;
24137;SDS011;17947;50.672;6.076;2022-12-07T16:29:13;1.73;;;1.30;;
24137;SDS011;17947;50.672;6.076;2022-12-07T16:31:39;3.05;;;1.45;;
24137;SDS011;17947;50.672;6.076;2022-12-07T16:34:06;1.77;;;1.35;;
24137;SDS011;17947;50.672;6.076;2022-12-07T16:36:32;1.60;;;1.50;;
24137;SDS011;17947;50.672;6.076;2022-12-07T16:38:59;1.38;;;1.27;;
24137;SDS011;17947;50.672;6.076;2022-12-07T16:41:25;1.92;;;1.42;;
24137;SDS011;17947;50.672;6.076;2022-12-07T16:43:51;2.60;;;1.55;;
24137;SDS011;17947;50.672;6.076;2022-12-07T16:46:18;1.42;;;1.33;;
24137;SDS011;17947;50.672;6.076;2022-12-07T16:48:47;1.98;;;1.40;;
24137;SDS011;17947;50.672;6.076;2022-12-07T16:51:14;3.45;;;1.60;;
24137;SDS011;17947;50.672;6.076;2022-12-07T16:53:41;2.83;;;1.45;;
24137;SDS011;17947;50.672;6.076;2022-12-07T16:56:11;1.50;;;1.40;;
24137;SDS011;17947;50.672;6.076;2022-12-07T16:58:37;2.00;;;1.40;;